Grissom ARB Airport
KGUS : now visible

Airfield :











YOU CAN JOIN US ON...

 
LOGIN :

Register | Disclaimer

   EN    FR    IT 

 









Legend :    VFR   Marginal VFR   IFR   Intensive IFR   Very Intensive IFR
Visi :
Ceiling :
>= 8 km
>= 3000ft
5 to 8 km
1000 to 3000 ft
1500m to 5 km
500 to 1000 ft
800 to 1500m
200 to 500 ft
< 800m
< 200 ft
Symbols :   Thunderstorms  Fog  Heavy snow  Heavy precipitations  Wind > 20 kt






- Airport Elevation : 812 ft


KGUS - Grissom ARB

CURRENT METAR :
  • 021857Z 00000KT 10SM CLR 14/03 A3012 RMK A02A SLP206 T01430031 $

EXPIRED METARs :
  • 021836Z AUTO 00000KT 2 1/4SM HZ CLR 14/02 A3014 RMK AO2 SLP213 $
  • 021756Z 36003KT 10SM CLR 13/03 A3015 RMK AO2A SLP217 T01300031 10130 21011 57015 $
  • 021656Z AUTO 30003KT 10SM CLR 12/05 A3017 RMK AO2 SLP223 T01240046 $
  • 021556Z AUTO 00000KT 10SM CLR 11/06 A3019 RMK AO2 SLP230 T01050059 $

TAF TAF KGUS
Valid from the 02 at 19:00 until the 04 at 01:00 UTC


021900Z 0219/0401 VRB06KT 9999 FEW240 QNH3007INS TX14/0317Z TN05/0311Z



MET'MAP, your aeronautical weather chart ! - Copyright ORBIFLY December 2007 - Disclaimer

ORBIFLY MET'MAP TEAM :

Programming & Development : Alexandra Zaïnal
Concept & original design : Baudouin d'Aumeries
Assistance for programming : Marc-Olivier Méhu
Technical & hardware support : Manuel Goepfert

Contact : metmap@orbifly.com




SOURCES & CREDITS :

   NOAA       Earth
Advisory